sensor_id;sensor_type;location;lat;lon;timestamp;P1;durP1;ratioP1;P2;durP2;ratioP2
52614;SDS011;38508;53.158;6.614;2023-01-30T00:00:53;42.60;;;29.98;;
52614;SDS011;38508;53.158;6.614;2023-01-30T00:03:21;46.92;;;31.50;;
52614;SDS011;38508;53.158;6.614;2023-01-30T00:05:48;44.70;;;31.73;;
52614;SDS011;38508;53.158;6.614;2023-01-30T00:08:14;43.42;;;30.00;;
52614;SDS011;38508;53.158;6.614;2023-01-30T00:10:40;34.92;;;27.52;;
52614;SDS011;38508;53.158;6.614;2023-01-30T00:13:06;39.13;;;26.00;;
52614;SDS011;38508;53.158;6.614;2023-01-30T00:15:32;35.70;;;25.25;;
52614;SDS011;38508;53.158;6.614;2023-01-30T00:17:57;30.42;;;24.15;;
52614;SDS011;38508;53.158;6.614;2023-01-30T00:20:23;33.75;;;23.35;;
52614;SDS011;38508;53.158;6.614;2023-01-30T00:22:49;32.40;;;23.60;;
52614;SDS011;38508;53.158;6.614;2023-01-30T00:25:15;36.67;;;23.50;;
52614;SDS011;38508;53.158;6.614;2023-01-30T00:27:40;35.72;;;24.85;;
52614;SDS011;38508;53.158;6.614;2023-01-30T00:30:06;31.80;;;24.20;;
52614;SDS011;38508;53.158;6.614;2023-01-30T00:32:33;30.63;;;23.80;;
52614;SDS011;38508;53.158;6.614;2023-01-30T00:34:58;30.77;;;24.70;;
52614;SDS011;38508;53.158;6.614;2023-01-30T00:37:25;27.00;;;23.50;;
52614;SDS011;38508;53.158;6.614;2023-01-30T00:39:50;34.58;;;23.85;;
52614;SDS011;38508;53.158;6.614;2023-01-30T00:42:16;33.83;;;24.63;;
52614;SDS011;38508;53.158;6.614;2023-01-30T00:45:00;35.00;;;27.23;;
52614;SDS011;38508;53.158;6.614;2023-01-30T00:47:45;34.83;;;26.80;;
52614;SDS011;38508;53.158;6.614;2023-01-30T00:50:13;44.40;;;31.90;;
52614;SDS011;38508;53.158;6.614;2023-01-30T00:52:39;44.55;;;36.42;;
52614;SDS011;38508;53.158;6.614;2023-01-30T00:55:04;44.38;;;38.60;;
52614;SDS011;38508;53.158;6.614;2023-01-30T00:57:30;47.72;;;42.60;;
52614;SDS011;38508;53.158;6.614;2023-01-30T00:59:56;47.63;;;43.13;;
52614;SDS011;38508;53.158;6.614;2023-01-30T01:02:22;49.63;;;42.30;;
52614;SDS011;38508;53.158;6.614;2023-01-30T01:04:48;49.75;;;43.22;;
52614;SDS011;38508;53.158;6.614;2023-01-30T01:07:14;51.35;;;44.63;;
52614;SDS011;38508;53.158;6.614;2023-01-30T01:09:39;50.00;;;45.08;;
52614;SDS011;38508;53.158;6.614;2023-01-30T01:12:06;52.20;;;45.67;;
52614;SDS011;38508;53.158;6.614;2023-01-30T01:14:32;48.65;;;43.63;;
52614;SDS011;38508;53.158;6.614;2023-01-30T01:16:58;50.58;;;45.55;;
52614;SDS011;38508;53.158;6.614;2023-01-30T01:19:24;45.97;;;41.28;;
52614;SDS011;38508;53.158;6.614;2023-01-30T01:21:50;46.33;;;41.83;;
52614;SDS011;38508;53.158;6.614;2023-01-30T01:24:15;47.22;;;42.50;;
52614;SDS011;38508;53.158;6.614;2023-01-30T01:26:42;47.38;;;42.63;;
52614;SDS011;38508;53.158;6.614;2023-01-30T01:29:12;44.72;;;40.67;;
52614;SDS011;38508;53.158;6.614;2023-01-30T01:31:39;42.50;;;38.25;;
52614;SDS011;38508;53.158;6.614;2023-01-30T01:34:05;41.40;;;37.35;;
52614;SDS011;38508;53.158;6.614;2023-01-30T01:36:30;40.00;;;36.20;;
52614;SDS011;38508;53.158;6.614;2023-01-30T01:38:56;40.30;;;36.38;;
52614;SDS011;38508;53.158;6.614;2023-01-30T01:41:22;40.20;;;36.00;;
52614;SDS011;38508;53.158;6.614;2023-01-30T01:44:07;36.60;;;33.33;;
52614;SDS011;38508;53.158;6.614;2023-01-30T01:46:35;37.70;;;33.38;;
52614;SDS011;38508;53.158;6.614;2023-01-30T01:49:28;37.53;;;33.53;;
52614;SDS011;38508;53.158;6.614;2023-01-30T01:52:07;36.03;;;32.38;;
52614;SDS011;38508;53.158;6.614;2023-01-30T01:54:47;36.00;;;32.22;;
52614;SDS011;38508;53.158;6.614;2023-01-30T02:00:00;34.95;;;31.98;;
52614;SDS011;38508;53.158;6.614;2023-01-30T02:02:35;36.83;;;33.45;;
52614;SDS011;38508;53.158;6.614;2023-01-30T02:05:02;36.60;;;32.83;;
52614;SDS011;38508;53.158;6.614;2023-01-30T02:07:40;38.17;;;34.53;;
52614;SDS011;38508;53.158;6.614;2023-01-30T02:10:28;38.28;;;33.63;;
52614;SDS011;38508;53.158;6.614;2023-01-30T02:13:15;39.60;;;34.47;;
52614;SDS011;38508;53.158;6.614;2023-01-30T02:15:42;51.88;;;36.47;;
52614;SDS011;38508;53.158;6.614;2023-01-30T02:18:07;45.47;;;35.78;;
52614;SDS011;38508;53.158;6.614;2023-01-30T02:31:43;49.08;;;37.35;;
52614;SDS011;38508;53.158;6.614;2023-01-30T02:47:24;42.83;;;35.05;;
52614;SDS011;38508;53.158;6.614;2023-01-30T02:49:59;55.15;;;34.63;;
52614;SDS011;38508;53.158;6.614;2023-01-30T02:52:46;51.97;;;35.47;;
52614;SDS011;38508;53.158;6.614;2023-01-30T02:55:19;51.35;;;34.90;;
52614;SDS011;38508;53.158;6.614;2023-01-30T02:57:47;49.95;;;33.65;;
52614;SDS011;38508;53.158;6.614;2023-01-30T03:00:14;52.88;;;35.53;;
52614;SDS011;38508;53.158;6.614;2023-01-30T03:11:03;39.38;;;28.63;;
52614;SDS011;38508;53.158;6.614;2023-01-30T03:13:48;49.72;;;29.70;;
52614;SDS011;38508;53.158;6.614;2023-01-30T03:16:24;37.92;;;28.40;;
52614;SDS011;38508;53.158;6.614;2023-01-30T03:19:01;38.03;;;24.08;;
52614;SDS011;38508;53.158;6.614;2023-01-30T03:21:28;40.97;;;23.48;;
52614;SDS011;38508;53.158;6.614;2023-01-30T03:23:54;44.28;;;20.88;;
52614;SDS011;38508;53.158;6.614;2023-01-30T03:26:21;34.20;;;18.42;;
52614;SDS011;38508;53.158;6.614;2023-01-30T03:28:50;33.13;;;18.92;;
52614;SDS011;38508;53.158;6.614;2023-01-30T03:31:17;38.53;;;18.88;;
52614;SDS011;38508;53.158;6.614;2023-01-30T03:33:43;35.20;;;18.52;;
52614;SDS011;38508;53.158;6.614;2023-01-30T03:36:09;36.75;;;17.85;;
52614;SDS011;38508;53.158;6.614;2023-01-30T03:38:35;36.78;;;15.65;;
52614;SDS011;38508;53.158;6.614;2023-01-30T03:41:01;39.45;;;16.48;;
52614;SDS011;38508;53.158;6.614;2023-01-30T03:43:29;38.72;;;15.10;;
52614;SDS011;38508;53.158;6.614;2023-01-30T03:45:55;34.47;;;13.32;;
52614;SDS011;38508;53.158;6.614;2023-01-30T03:48:20;34.40;;;12.00;;
52614;SDS011;38508;53.158;6.614;2023-01-30T03:50:46;28.98;;;11.95;;
52614;SDS011;38508;53.158;6.614;2023-01-30T03:53:12;31.08;;;10.38;;
52614;SDS011;38508;53.158;6.614;2023-01-30T03:55:38;37.53;;;10.02;;
52614;SDS011;38508;53.158;6.614;2023-01-30T03:58:04;40.30;;;10.68;;
52614;SDS011;38508;53.158;6.614;2023-01-30T04:00:30;27.80;;;9.38;;
52614;SDS011;38508;53.158;6.614;2023-01-30T04:02:56;30.27;;;11.60;;
52614;SDS011;38508;53.158;6.614;2023-01-30T04:05:23;35.28;;;12.60;;
52614;SDS011;38508;53.158;6.614;2023-01-30T04:07:49;33.20;;;12.70;;
52614;SDS011;38508;53.158;6.614;2023-01-30T04:10:15;35.17;;;12.73;;
52614;SDS011;38508;53.158;6.614;2023-01-30T04:12:44;31.25;;;11.63;;
52614;SDS011;38508;53.158;6.614;2023-01-30T04:15:10;32.67;;;10.82;;
52614;SDS011;38508;53.158;6.614;2023-01-30T04:17:36;33.90;;;11.10;;
52614;SDS011;38508;53.158;6.614;2023-01-30T04:20:01;31.80;;;10.75;;
52614;SDS011;38508;53.158;6.614;2023-01-30T04:22:27;36.45;;;9.45;;
52614;SDS011;38508;53.158;6.614;2023-01-30T04:24:53;36.55;;;11.35;;
52614;SDS011;38508;53.158;6.614;2023-01-30T04:27:19;30.95;;;11.00;;
52614;SDS011;38508;53.158;6.614;2023-01-30T04:29:44;33.95;;;11.48;;
52614;SDS011;38508;53.158;6.614;2023-01-30T04:32:10;36.40;;;10.63;;
52614;SDS011;38508;53.158;6.614;2023-01-30T04:34:36;41.53;;;10.20;;
52614;SDS011;38508;53.158;6.614;2023-01-30T04:37:01;38.78;;;10.13;;
52614;SDS011;38508;53.158;6.614;2023-01-30T04:39:27;47.25;;;9.02;;
52614;SDS011;38508;53.158;6.614;2023-01-30T04:41:53;36.72;;;10.05;;
52614;SDS011;38508;53.158;6.614;2023-01-30T04:44:19;32.63;;;10.82;;
52614;SDS011;38508;53.158;6.614;2023-01-30T04:46:45;39.00;;;12.68;;
52614;SDS011;38508;53.158;6.614;2023-01-30T04:49:10;44.65;;;12.00;;
52614;SDS011;38508;53.158;6.614;2023-01-30T04:51:36;42.13;;;10.73;;
52614;SDS011;38508;53.158;6.614;2023-01-30T04:54:02;47.55;;;11.63;;
52614;SDS011;38508;53.158;6.614;2023-01-30T04:56:28;39.45;;;8.32;;
52614;SDS011;38508;53.158;6.614;2023-01-30T04:58:54;29.65;;;7.97;;
52614;SDS011;38508;53.158;6.614;2023-01-30T05:01:21;36.67;;;5.93;;
52614;SDS011;38508;53.158;6.614;2023-01-30T05:03:53;32.20;;;6.32;;
52614;SDS011;38508;53.158;6.614;2023-01-30T05:06:20;30.70;;;5.70;;
52614;SDS011;38508;53.158;6.614;2023-01-30T05:08:47;26.55;;;5.50;;
52614;SDS011;38508;53.158;6.614;2023-01-30T05:11:13;35.60;;;5.75;;
52614;SDS011;38508;53.158;6.614;2023-01-30T05:13:39;26.55;;;6.18;;
52614;SDS011;38508;53.158;6.614;2023-01-30T05:16:05;26.23;;;5.88;;
52614;SDS011;38508;53.158;6.614;2023-01-30T05:18:30;33.95;;;5.72;;
52614;SDS011;38508;53.158;6.614;2023-01-30T05:23:53;31.27;;;5.53;;
52614;SDS011;38508;53.158;6.614;2023-01-30T05:26:20;33.50;;;5.00;;
52614;SDS011;38508;53.158;6.614;2023-01-30T05:28:49;35.20;;;5.63;;
52614;SDS011;38508;53.158;6.614;2023-01-30T05:31:19;27.10;;;5.90;;
52614;SDS011;38508;53.158;6.614;2023-01-30T05:33:46;34.50;;;5.13;;
52614;SDS011;38508;53.158;6.614;2023-01-30T05:36:14;29.63;;;5.43;;
52614;SDS011;38508;53.158;6.614;2023-01-30T05:38:41;31.02;;;4.82;;
52614;SDS011;38508;53.158;6.614;2023-01-30T05:41:08;26.25;;;5.35;;
52614;SDS011;38508;53.158;6.614;2023-01-30T05:43:34;30.63;;;5.32;;
52614;SDS011;38508;53.158;6.614;2023-01-30T05:46:03;29.85;;;5.10;;
52614;SDS011;38508;53.158;6.614;2023-01-30T05:48:29;24.20;;;5.15;;
52614;SDS011;38508;53.158;6.614;2023-01-30T05:50:56;42.08;;;4.55;;
52614;SDS011;38508;53.158;6.614;2023-01-30T05:53:25;32.47;;;5.50;;
52614;SDS011;38508;53.158;6.614;2023-01-30T05:55:55;33.63;;;4.78;;
52614;SDS011;38508;53.158;6.614;2023-01-30T05:58:27;29.15;;;5.47;;
52614;SDS011;38508;53.158;6.614;2023-01-30T06:00:53;28.50;;;5.00;;
52614;SDS011;38508;53.158;6.614;2023-01-30T06:03:19;30.05;;;5.00;;
52614;SDS011;38508;53.158;6.614;2023-01-30T06:05:44;34.17;;;5.43;;
52614;SDS011;38508;53.158;6.614;2023-01-30T06:08:10;31.90;;;5.05;;
52614;SDS011;38508;53.158;6.614;2023-01-30T06:10:36;27.23;;;4.85;;
52614;SDS011;38508;53.158;6.614;2023-01-30T06:13:02;33.90;;;5.85;;
52614;SDS011;38508;53.158;6.614;2023-01-30T06:15:28;28.13;;;5.03;;
52614;SDS011;38508;53.158;6.614;2023-01-30T06:17:54;34.03;;;5.10;;
52614;SDS011;38508;53.158;6.614;2023-01-30T06:20:20;26.98;;;4.50;;
52614;SDS011;38508;53.158;6.614;2023-01-30T06:22:46;34.22;;;5.32;;
52614;SDS011;38508;53.158;6.614;2023-01-30T06:25:13;34.50;;;6.25;;
52614;SDS011;38508;53.158;6.614;2023-01-30T06:27:38;29.05;;;5.20;;
52614;SDS011;38508;53.158;6.614;2023-01-30T06:30:04;31.08;;;4.93;;
52614;SDS011;38508;53.158;6.614;2023-01-30T06:32:30;22.52;;;4.75;;
52614;SDS011;38508;53.158;6.614;2023-01-30T06:34:56;34.90;;;5.32;;
52614;SDS011;38508;53.158;6.614;2023-01-30T06:37:21;29.98;;;4.60;;
52614;SDS011;38508;53.158;6.614;2023-01-30T06:39:47;30.95;;;5.72;;
52614;SDS011;38508;53.158;6.614;2023-01-30T06:42:13;41.50;;;5.95;;
52614;SDS011;38508;53.158;6.614;2023-01-30T06:44:38;36.95;;;5.05;;
52614;SDS011;38508;53.158;6.614;2023-01-30T06:47:04;28.17;;;4.63;;
52614;SDS011;38508;53.158;6.614;2023-01-30T06:49:30;29.92;;;4.80;;
52614;SDS011;38508;53.158;6.614;2023-01-30T06:51:55;33.00;;;5.38;;
52614;SDS011;38508;53.158;6.614;2023-01-30T06:54:21;27.25;;;5.30;;
52614;SDS011;38508;53.158;6.614;2023-01-30T06:56:47;34.45;;;5.32;;
52614;SDS011;38508;53.158;6.614;2023-01-30T06:59:13;29.95;;;5.38;;
52614;SDS011;38508;53.158;6.614;2023-01-30T07:01:38;21.90;;;4.75;;
52614;SDS011;38508;53.158;6.614;2023-01-30T07:04:04;32.53;;;5.05;;
52614;SDS011;38508;53.158;6.614;2023-01-30T07:06:30;34.70;;;5.00;;
52614;SDS011;38508;53.158;6.614;2023-01-30T07:08:55;28.95;;;4.70;;
52614;SDS011;38508;53.158;6.614;2023-01-30T07:11:23;34.17;;;5.28;;
52614;SDS011;38508;53.158;6.614;2023-01-30T07:13:49;34.58;;;5.22;;
52614;SDS011;38508;53.158;6.614;2023-01-30T07:16:15;33.72;;;5.85;;
52614;SDS011;38508;53.158;6.614;2023-01-30T07:18:40;31.42;;;4.90;;
52614;SDS011;38508;53.158;6.614;2023-01-30T07:21:06;35.45;;;5.43;;
52614;SDS011;38508;53.158;6.614;2023-01-30T07:23:32;30.30;;;5.13;;
52614;SDS011;38508;53.158;6.614;2023-01-30T07:25:58;32.15;;;5.05;;
52614;SDS011;38508;53.158;6.614;2023-01-30T07:28:23;29.13;;;4.80;;
52614;SDS011;38508;53.158;6.614;2023-01-30T07:30:49;38.67;;;5.10;;
52614;SDS011;38508;53.158;6.614;2023-01-30T07:33:17;31.95;;;5.13;;
52614;SDS011;38508;53.158;6.614;2023-01-30T07:35:44;38.60;;;4.90;;
52614;SDS011;38508;53.158;6.614;2023-01-30T07:38:10;30.13;;;5.35;;
52614;SDS011;38508;53.158;6.614;2023-01-30T07:40:36;33.88;;;6.43;;
52614;SDS011;38508;53.158;6.614;2023-01-30T07:43:03;35.13;;;5.65;;
52614;SDS011;38508;53.158;6.614;2023-01-30T07:45:35;31.02;;;5.38;;
52614;SDS011;38508;53.158;6.614;2023-01-30T07:48:06;34.92;;;4.70;;
52614;SDS011;38508;53.158;6.614;2023-01-30T07:50:32;38.70;;;5.78;;
52614;SDS011;38508;53.158;6.614;2023-01-30T07:52:58;37.63;;;5.63;;
52614;SDS011;38508;53.158;6.614;2023-01-30T07:55:26;31.95;;;4.75;;
52614;SDS011;38508;53.158;6.614;2023-01-30T07:57:52;39.78;;;4.80;;
52614;SDS011;38508;53.158;6.614;2023-01-30T08:00:18;36.03;;;5.70;;
52614;SDS011;38508;53.158;6.614;2023-01-30T08:02:44;32.50;;;4.88;;
52614;SDS011;38508;53.158;6.614;2023-01-30T08:05:09;25.98;;;4.85;;
52614;SDS011;38508;53.158;6.614;2023-01-30T08:07:35;27.98;;;4.85;;
52614;SDS011;38508;53.158;6.614;2023-01-30T08:10:01;37.45;;;6.18;;
52614;SDS011;38508;53.158;6.614;2023-01-30T08:12:27;24.70;;;3.97;;
52614;SDS011;38508;53.158;6.614;2023-01-30T08:14:53;37.20;;;5.03;;
52614;SDS011;38508;53.158;6.614;2023-01-30T08:17:18;36.15;;;5.18;;
52614;SDS011;38508;53.158;6.614;2023-01-30T08:19:44;42.20;;;5.07;;
52614;SDS011;38508;53.158;6.614;2023-01-30T08:22:10;29.90;;;4.00;;
52614;SDS011;38508;53.158;6.614;2023-01-30T08:24:35;31.73;;;4.53;;
52614;SDS011;38508;53.158;6.614;2023-01-30T08:27:01;32.85;;;5.10;;
52614;SDS011;38508;53.158;6.614;2023-01-30T08:29:27;29.80;;;5.53;;
52614;SDS011;38508;53.158;6.614;2023-01-30T08:31:56;33.17;;;5.70;;
52614;SDS011;38508;53.158;6.614;2023-01-30T08:34:22;34.15;;;5.00;;
52614;SDS011;38508;53.158;6.614;2023-01-30T08:36:48;27.98;;;4.57;;
52614;SDS011;38508;53.158;6.614;2023-01-30T08:39:14;29.02;;;4.63;;
52614;SDS011;38508;53.158;6.614;2023-01-30T08:41:40;34.20;;;4.93;;
52614;SDS011;38508;53.158;6.614;2023-01-30T08:44:09;32.47;;;5.78;;
52614;SDS011;38508;53.158;6.614;2023-01-30T08:46:35;30.60;;;4.80;;
52614;SDS011;38508;53.158;6.614;2023-01-30T08:49:01;37.65;;;6.38;;
52614;SDS011;38508;53.158;6.614;2023-01-30T08:51:27;34.05;;;5.28;;
52614;SDS011;38508;53.158;6.614;2023-01-30T08:53:53;27.42;;;5.05;;
52614;SDS011;38508;53.158;6.614;2023-01-30T08:56:19;32.90;;;5.28;;
52614;SDS011;38508;53.158;6.614;2023-01-30T08:58:44;36.42;;;4.90;;
52614;SDS011;38508;53.158;6.614;2023-01-30T09:01:10;36.25;;;5.85;;
52614;SDS011;38508;53.158;6.614;2023-01-30T09:03:37;34.40;;;5.85;;
52614;SDS011;38508;53.158;6.614;2023-01-30T09:06:03;25.23;;;4.78;;
52614;SDS011;38508;53.158;6.614;2023-01-30T09:08:29;28.55;;;4.90;;
52614;SDS011;38508;53.158;6.614;2023-01-30T09:10:58;39.03;;;5.32;;
52614;SDS011;38508;53.158;6.614;2023-01-30T09:13:25;37.28;;;5.55;;
52614;SDS011;38508;53.158;6.614;2023-01-30T09:15:52;38.10;;;6.32;;
52614;SDS011;38508;53.158;6.614;2023-01-30T09:18:18;50.88;;;8.90;;
52614;SDS011;38508;53.158;6.614;2023-01-30T09:20:44;39.58;;;6.97;;
52614;SDS011;38508;53.158;6.614;2023-01-30T09:23:10;38.15;;;7.72;;
52614;SDS011;38508;53.158;6.614;2023-01-30T09:25:35;41.75;;;6.05;;
52614;SDS011;38508;53.158;6.614;2023-01-30T09:28:01;35.13;;;5.45;;
52614;SDS011;38508;53.158;6.614;2023-01-30T09:30:27;37.80;;;6.05;;
52614;SDS011;38508;53.158;6.614;2023-01-30T09:32:53;33.25;;;5.75;;
52614;SDS011;38508;53.158;6.614;2023-01-30T09:35:19;35.35;;;5.30;;
52614;SDS011;38508;53.158;6.614;2023-01-30T09:37:48;36.83;;;7.30;;
52614;SDS011;38508;53.158;6.614;2023-01-30T09:40:22;42.35;;;8.43;;
52614;SDS011;38508;53.158;6.614;2023-01-30T09:56:03;32.45;;;5.88;;
52614;SDS011;38508;53.158;6.614;2023-01-30T10:06:53;32.25;;;5.45;;
52614;SDS011;38508;53.158;6.614;2023-01-30T10:15:24;32.97;;;5.32;;
52614;SDS011;38508;53.158;6.614;2023-01-30T10:18:12;36.45;;;5.57;;
52614;SDS011;38508;53.158;6.614;2023-01-30T10:21:03;36.38;;;5.32;;
52614;SDS011;38508;53.158;6.614;2023-01-30T10:26:44;35.05;;;5.40;;
52614;SDS011;38508;53.158;6.614;2023-01-30T10:31:41;38.25;;;7.05;;
52614;SDS011;38508;53.158;6.614;2023-01-30T10:34:15;28.42;;;5.32;;
52614;SDS011;38508;53.158;6.614;2023-01-30T10:39:21;11.27;;;1.80;;
52614;SDS011;38508;53.158;6.614;2023-01-30T10:42:08;5.72;;;2.05;;
52614;SDS011;38508;53.158;6.614;2023-01-30T10:44:43;7.45;;;1.60;;
52614;SDS011;38508;53.158;6.614;2023-01-30T10:49:53;12.52;;;1.90;;
52614;SDS011;38508;53.158;6.614;2023-01-30T10:52:43;5.88;;;2.15;;
52614;SDS011;38508;53.158;6.614;2023-01-30T10:58:21;8.23;;;2.17;;
52614;SDS011;38508;53.158;6.614;2023-01-30T11:03:23;15.45;;;3.10;;
52614;SDS011;38508;53.158;6.614;2023-01-30T11:05:55;18.83;;;3.17;;
52614;SDS011;38508;53.158;6.614;2023-01-30T11:08:29;19.88;;;3.78;;
52614;SDS011;38508;53.158;6.614;2023-01-30T11:10:57;21.05;;;3.55;;
52614;SDS011;38508;53.158;6.614;2023-01-30T11:13:32;15.43;;;2.85;;
52614;SDS011;38508;53.158;6.614;2023-01-30T11:15:59;21.60;;;3.42;;
52614;SDS011;38508;53.158;6.614;2023-01-30T11:18:31;24.58;;;4.00;;
52614;SDS011;38508;53.158;6.614;2023-01-30T11:23:40;14.48;;;2.95;;
52614;SDS011;38508;53.158;6.614;2023-01-30T11:26:50;16.60;;;2.92;;
52614;SDS011;38508;53.158;6.614;2023-01-30T11:28:58;20.42;;;2.65;;
52614;SDS011;38508;53.158;6.614;2023-01-30T11:31:25;16.45;;;3.35;;
52614;SDS011;38508;53.158;6.614;2023-01-30T11:34:02;25.00;;;3.45;;
52614;SDS011;38508;53.158;6.614;2023-01-30T11:36:31;20.15;;;2.97;;
52614;SDS011;38508;53.158;6.614;2023-01-30T11:38:59;17.17;;;3.13;;
52614;SDS011;38508;53.158;6.614;2023-01-30T11:41:43;17.58;;;3.45;;
52614;SDS011;38508;53.158;6.614;2023-01-30T11:44:52;26.88;;;3.97;;
52614;SDS011;38508;53.158;6.614;2023-01-30T11:47:17;21.45;;;3.58;;
52614;SDS011;38508;53.158;6.614;2023-01-30T11:49:49;28.80;;;3.95;;
52614;SDS011;38508;53.158;6.614;2023-01-30T11:52:38;20.83;;;3.45;;
52614;SDS011;38508;53.158;6.614;2023-01-30T11:55:08;17.08;;;3.08;;
52614;SDS011;38508;53.158;6.614;2023-01-30T11:57:48;25.58;;;3.22;;
52614;SDS011;38508;53.158;6.614;2023-01-30T12:02:48;21.92;;;3.20;;
52614;SDS011;38508;53.158;6.614;2023-01-30T12:07:50;18.88;;;2.92;;
52614;SDS011;38508;53.158;6.614;2023-01-30T12:12:55;17.20;;;2.78;;
52614;SDS011;38508;53.158;6.614;2023-01-30T12:15:26;25.02;;;3.53;;
52614;SDS011;38508;53.158;6.614;2023-01-30T12:28:27;28.17;;;4.28;;
52614;SDS011;38508;53.158;6.614;2023-01-30T12:31:07;29.10;;;4.75;;
52614;SDS011;38508;53.158;6.614;2023-01-30T12:33:43;24.48;;;4.13;;
52614;SDS011;38508;53.158;6.614;2023-01-30T12:36:21;25.23;;;4.22;;
52614;SDS011;38508;53.158;6.614;2023-01-30T12:47:05;29.50;;;4.90;;
52614;SDS011;38508;53.158;6.614;2023-01-30T12:49:55;35.72;;;5.03;;
52614;SDS011;38508;53.158;6.614;2023-01-30T12:52:50;27.77;;;4.95;;
52614;SDS011;38508;53.158;6.614;2023-01-30T13:03:34;26.75;;;4.60;;
52614;SDS011;38508;53.158;6.614;2023-01-30T13:14:34;23.40;;;4.75;;
52614;SDS011;38508;53.158;6.614;2023-01-30T13:20:14;23.52;;;4.88;;
52614;SDS011;38508;53.158;6.614;2023-01-30T13:25:21;30.27;;;4.90;;
52614;SDS011;38508;53.158;6.614;2023-01-30T13:28:08;28.92;;;4.85;;
52614;SDS011;38508;53.158;6.614;2023-01-30T13:30:38;25.92;;;5.07;;
52614;SDS011;38508;53.158;6.614;2023-01-30T13:33:09;34.75;;;6.22;;
52614;SDS011;38508;53.158;6.614;2023-01-30T13:35:42;30.30;;;6.65;;
52614;SDS011;38508;53.158;6.614;2023-01-30T13:38:13;37.80;;;5.97;;
52614;SDS011;38508;53.158;6.614;2023-01-30T13:40:51;38.17;;;6.18;;
52614;SDS011;38508;53.158;6.614;2023-01-30T13:46:00;35.20;;;5.90;;
52614;SDS011;38508;53.158;6.614;2023-01-30T13:53:48;45.75;;;7.25;;
52614;SDS011;38508;53.158;6.614;2023-01-30T14:02:25;31.60;;;5.72;;
52614;SDS011;38508;53.158;6.614;2023-01-30T14:04:52;41.45;;;6.55;;
52614;SDS011;38508;53.158;6.614;2023-01-30T14:15:19;31.60;;;6.22;;
52614;SDS011;38508;53.158;6.614;2023-01-30T14:20:26;45.03;;;7.15;;
52614;SDS011;38508;53.158;6.614;2023-01-30T14:23:03;42.80;;;5.97;;
52614;SDS011;38508;53.158;6.614;2023-01-30T14:25:46;49.08;;;6.53;;
52614;SDS011;38508;53.158;6.614;2023-01-30T14:38:31;37.30;;;6.25;;
52614;SDS011;38508;53.158;6.614;2023-01-30T14:46:11;40.20;;;5.93;;
52614;SDS011;38508;53.158;6.614;2023-01-30T14:51:22;39.65;;;6.82;;
52614;SDS011;38508;53.158;6.614;2023-01-30T15:04:45;30.50;;;6.03;;
52614;SDS011;38508;53.158;6.614;2023-01-30T15:28:57;24.73;;;4.22;;
52614;SDS011;38508;53.158;6.614;2023-01-30T15:31:56;28.55;;;5.68;;
52614;SDS011;38508;53.158;6.614;2023-01-30T15:34:26;40.72;;;12.20;;
52614;SDS011;38508;53.158;6.614;2023-01-30T15:36:53;32.50;;;5.68;;
52614;SDS011;38508;53.158;6.614;2023-01-30T15:39:26;27.30;;;5.38;;
52614;SDS011;38508;53.158;6.614;2023-01-30T15:41:53;25.40;;;5.32;;
52614;SDS011;38508;53.158;6.614;2023-01-30T15:52:23;28.90;;;6.05;;
52614;SDS011;38508;53.158;6.614;2023-01-30T15:54:57;27.17;;;6.22;;
52614;SDS011;38508;53.158;6.614;2023-01-30T15:57:27;36.17;;;6.78;;
52614;SDS011;38508;53.158;6.614;2023-01-30T15:59:56;39.83;;;7.25;;
52614;SDS011;38508;53.158;6.614;2023-01-30T16:02:30;38.97;;;8.10;;
52614;SDS011;38508;53.158;6.614;2023-01-30T16:05:16;34.97;;;7.40;;
52614;SDS011;38508;53.158;6.614;2023-01-30T16:10:14;26.63;;;6.22;;
52614;SDS011;38508;53.158;6.614;2023-01-30T16:12:45;39.25;;;6.88;;
52614;SDS011;38508;53.158;6.614;2023-01-30T16:15:33;38.35;;;6.55;;
52614;SDS011;38508;53.158;6.614;2023-01-30T16:18:09;36.95;;;7.32;;
52614;SDS011;38508;53.158;6.614;2023-01-30T16:20:50;36.40;;;6.78;;
52614;SDS011;38508;53.158;6.614;2023-01-30T16:26:06;39.85;;;6.95;;
52614;SDS011;38508;53.158;6.614;2023-01-30T16:28:37;39.15;;;6.93;;
52614;SDS011;38508;53.158;6.614;2023-01-30T16:31:06;39.97;;;8.25;;
52614;SDS011;38508;53.158;6.614;2023-01-30T16:33:33;44.90;;;7.82;;
52614;SDS011;38508;53.158;6.614;2023-01-30T16:36:03;36.45;;;7.07;;
52614;SDS011;38508;53.158;6.614;2023-01-30T16:41:24;27.85;;;5.57;;
52614;SDS011;38508;53.158;6.614;2023-01-30T16:44:25;30.80;;;5.72;;
52614;SDS011;38508;53.158;6.614;2023-01-30T16:47:05;41.17;;;6.72;;
52614;SDS011;38508;53.158;6.614;2023-01-30T16:49:49;38.22;;;6.50;;
52614;SDS011;38508;53.158;6.614;2023-01-30T16:52:18;34.63;;;7.00;;
52614;SDS011;38508;53.158;6.614;2023-01-30T16:54:52;32.33;;;6.15;;
52614;SDS011;38508;53.158;6.614;2023-01-30T17:00:04;41.67;;;7.78;;
52614;SDS011;38508;53.158;6.614;2023-01-30T17:02:38;33.92;;;6.97;;
52614;SDS011;38508;53.158;6.614;2023-01-30T17:05:18;43.17;;;7.80;;
52614;SDS011;38508;53.158;6.614;2023-01-30T17:07:46;40.08;;;8.68;;
52614;SDS011;38508;53.158;6.614;2023-01-30T17:13:09;33.85;;;6.00;;
52614;SDS011;38508;53.158;6.614;2023-01-30T17:15:52;30.52;;;7.32;;
52614;SDS011;38508;53.158;6.614;2023-01-30T17:19:00;41.50;;;7.40;;
52614;SDS011;38508;53.158;6.614;2023-01-30T17:21:27;37.55;;;7.20;;
52614;SDS011;38508;53.158;6.614;2023-01-30T17:24:10;34.67;;;8.23;;
52614;SDS011;38508;53.158;6.614;2023-01-30T17:26:39;46.88;;;7.13;;
52614;SDS011;38508;53.158;6.614;2023-01-30T17:29:05;38.08;;;6.63;;
52614;SDS011;38508;53.158;6.614;2023-01-30T17:31:31;45.15;;;8.00;;
52614;SDS011;38508;53.158;6.614;2023-01-30T17:33:56;41.10;;;6.57;;
52614;SDS011;38508;53.158;6.614;2023-01-30T17:36:24;42.95;;;8.23;;
52614;SDS011;38508;53.158;6.614;2023-01-30T17:38:51;42.10;;;7.65;;
52614;SDS011;38508;53.158;6.614;2023-01-30T17:43:46;42.88;;;7.47;;
52614;SDS011;38508;53.158;6.614;2023-01-30T17:46:12;29.77;;;7.57;;
52614;SDS011;38508;53.158;6.614;2023-01-30T17:48:38;40.05;;;8.10;;
52614;SDS011;38508;53.158;6.614;2023-01-30T17:51:04;45.33;;;9.10;;
52614;SDS011;38508;53.158;6.614;2023-01-30T17:53:30;41.88;;;7.85;;
52614;SDS011;38508;53.158;6.614;2023-01-30T17:55:56;54.13;;;8.75;;
52614;SDS011;38508;53.158;6.614;2023-01-30T17:58:21;33.88;;;8.45;;
52614;SDS011;38508;53.158;6.614;2023-01-30T18:00:47;50.42;;;8.85;;
52614;SDS011;38508;53.158;6.614;2023-01-30T18:03:13;42.08;;;8.63;;
52614;SDS011;38508;53.158;6.614;2023-01-30T18:05:39;39.20;;;8.60;;
52614;SDS011;38508;53.158;6.614;2023-01-30T18:08:05;40.33;;;7.75;;
52614;SDS011;38508;53.158;6.614;2023-01-30T18:10:31;34.72;;;7.72;;
52614;SDS011;38508;53.158;6.614;2023-01-30T18:12:57;42.05;;;8.38;;
52614;SDS011;38508;53.158;6.614;2023-01-30T18:15:22;37.75;;;7.68;;
52614;SDS011;38508;53.158;6.614;2023-01-30T18:17:48;34.45;;;6.97;;
52614;SDS011;38508;53.158;6.614;2023-01-30T18:20:18;42.78;;;7.03;;
52614;SDS011;38508;53.158;6.614;2023-01-30T18:22:44;37.45;;;7.85;;
52614;SDS011;38508;53.158;6.614;2023-01-30T18:25:10;50.05;;;7.32;;
52614;SDS011;38508;53.158;6.614;2023-01-30T18:27:40;31.33;;;8.20;;
52614;SDS011;38508;53.158;6.614;2023-01-30T18:30:08;37.75;;;9.32;;
52614;SDS011;38508;53.158;6.614;2023-01-30T18:32:41;47.78;;;10.40;;
52614;SDS011;38508;53.158;6.614;2023-01-30T18:35:07;47.72;;;9.98;;
52614;SDS011;38508;53.158;6.614;2023-01-30T18:37:33;34.30;;;10.73;;